Smit Clyde — CFG7577 — position and weather

sailwx.info

Track history (hours):
 
Tides and Currents Weather Stations Pressure Air Temp Water Temp Dewpoint Dewpoint Depression Visibility Wind Speed Wind Dir Waves Ship Positions

Smit Clyde

Last reported at 2014-Nov-22 04:10 UTC. Time now 2014-Nov-22 14:25 UTC.
Position N 54°18' W 130°21'.

Length 28 m; draft 6 m.

Type: Towing. MMSI: 316011473.

Date/timePositionNaut miles runAvg speedWind from/ knotsBaromVisibWave heightAir tempDewpointWater temp
2014-Nov-22 04:10N 54°18' W 130°21'0 0.0
2014-Nov-22 03:34N 54°18' W 130°21'0 0.0
2014-Nov-22 02:34N 54°18' W 130°21'0 0.0
2014-Nov-22 01:34N 54°18' W 130°21'0 0.0
2014-Nov-22 00:34N 54°18' W 130°21'0 0.0
2014-Nov-21 23:33N 54°18' W 130°21'0 0.0
2014-Nov-21 22:33N 54°18' W 130°21'5 2.0
2014-Nov-21 20:13N 54°13' W 130°23'1 0.6
2014-Nov-21 19:23N 54°13' W 130°22'3 3.6
2014-Nov-21 18:33N 54°16' W 130°22'2 1.7
2014-Nov-21 17:33N 54°18' W 130°21'0 0.0
2014-Nov-21 09:34N 54°18' W 130°21'0 0.0
2014-Nov-21 08:33N 54°18' W 130°21'0 0.0
2014-Nov-21 07:33N 54°18' W 130°21'0 0.0
2014-Nov-21 06:34N 54°18' W 130°21'0 0.0
2014-Nov-21 05:33N 54°18' W 130°21'0 0.0
2014-Nov-21 04:34N 54°18' W 130°21'0 0.0
2014-Nov-21 03:34N 54°18' W 130°21'0 0.0
2014-Nov-21 02:33N 54°18' W 130°21'0 0.0
2014-Nov-21 01:34N 54°18' W 130°21'0 0.0
2014-Nov-21 00:33N 54°18' W 130°21'0 0.0
2014-Nov-20 23:33N 54°18' W 130°21'0 0.0
2014-Nov-20 22:34N 54°18' W 130°21'0 0.0
2014-Nov-20 20:04N 54°18' W 130°21'0 0.0
2014-Nov-20 19:33N 54°18' W 130°21'0 0.0
2014-Nov-20 18:33N 54°18' W 130°21'0 0.0
2014-Nov-20 17:34N 54°18' W 130°21'0 0.0
2014-Nov-20 16:34N 54°18' W 130°21'0 0.0
2014-Nov-20 15:34N 54°18' W 130°21'0 0.0
2014-Nov-20 14:34N 54°18' W 130°21'0 0.0
2014-Nov-20 13:34N 54°18' W 130°21'0 0.0
2014-Nov-20 12:34N 54°18' W 130°21'0 0.0
2014-Nov-20 11:34N 54°18' W 130°21'0 0.0
2014-Nov-20 10:33N 54°18' W 130°21'0 0.0
2014-Nov-20 09:33N 54°18' W 130°21'0 0.0
2014-Nov-20 08:34N 54°18' W 130°21'0 0.0
2014-Nov-20 07:34N 54°18' W 130°21'0 0.0
2014-Nov-20 06:33N 54°18' W 130°21'0 0.0
2014-Nov-20 05:33N 54°18' W 130°21'0 0.0
2014-Nov-20 04:34N 54°18' W 130°21'0 0.0
2014-Nov-20 03:34N 54°18' W 130°21'0 0.0
2014-Nov-20 02:33N 54°18' W 130°21'0 0.0
2014-Nov-20 01:34N 54°18' W 130°21'0 0.0
2014-Nov-20 00:34N 54°18' W 130°21'0 0.0
2014-Nov-19 23:33N 54°18' W 130°21'0 0.0
2014-Nov-19 22:34N 54°18' W 130°21'0 0.0
2014-Nov-19 21:33N 54°18' W 130°21'0 0.0
2014-Nov-19 20:33N 54°18' W 130°21'0 0.0
2014-Nov-19 19:33N 54°18' W 130°21'0 0.0
2014-Nov-19 18:33N 54°18' W 130°21'0 0.0
2014-Nov-19 17:34N 54°18' W 130°21'0 0.0
2014-Nov-19 16:34N 54°18' W 130°21'0 0.0
2014-Nov-19 02:34N 54°18' W 130°21'0 0.0
2014-Nov-19 01:34N 54°18' W 130°21'0 0.0
2014-Nov-19 00:33N 54°18' W 130°21'0 0.0
2014-Nov-18 23:33N 54°18' W 130°21'0 0.0
2014-Nov-18 22:34N 54°18' W 130°21'0 0.0
2014-Nov-18 21:33N 54°18' W 130°21'0 0.0
2014-Nov-18 20:33N 54°18' W 130°21'0 0.0
2014-Nov-18 19:34N 54°18' W 130°21'0 0.0
2014-Nov-18 18:33N 54°18' W 130°21'0 0.0
2014-Nov-18 17:34N 54°18' W 130°21'0 0.0
2014-Nov-18 16:34N 54°18' W 130°21'0 0.0
2014-Nov-18 15:34N 54°18' W 130°21'0 0.0
2014-Nov-18 09:33N 54°18' W 130°21'0 0.0
2014-Nov-18 08:33N 54°18' W 130°21'0 0.0
2014-Nov-18 07:33N 54°18' W 130°21'0 0.0
2014-Nov-18 06:33N 54°18' W 130°21'0 0.0
2014-Nov-18 05:33N 54°18' W 130°21'0 0.0
2014-Nov-18 04:33N 54°18' W 130°21'0 0.0
2014-Nov-18 03:34N 54°18' W 130°21'0 0.0
2014-Nov-18 02:34N 54°18' W 130°21'0 0.0
2014-Nov-18 01:33N 54°18' W 130°21'0 0.0
2014-Nov-17 21:34N 54°18' W 130°21'0 0.0
2014-Nov-17 20:34N 54°18' W 130°21'0 0.0
2014-Nov-17 19:34N 54°18' W 130°21'0 0.0
2014-Nov-17 18:33N 54°18' W 130°21'0 0.0
2014-Nov-17 17:34N 54°18' W 130°21'0 0.0
2014-Nov-17 16:33N 54°18' W 130°21'0 0.0
2014-Nov-17 15:34N 54°18' W 130°21'0 0.0
2014-Nov-17 14:33N 54°18' W 130°21'0 0.0
2014-Nov-17 13:34N 54°18' W 130°21'0 0.0
2014-Nov-17 12:33N 54°18' W 130°21'0 0.0
2014-Nov-17 11:33N 54°18' W 130°21'0 0.0
2014-Nov-17 10:34N 54°18' W 130°21'0 0.0
2014-Nov-17 09:33N 54°18' W 130°21'0 0.0
2014-Nov-17 08:33N 54°18' W 130°21'0 0.0
2014-Nov-17 07:34N 54°18' W 130°21'0 0.0
2014-Nov-17 06:34N 54°18' W 130°21'0 0.0
2014-Nov-17 05:33N 54°18' W 130°21'0 0.0
2014-Nov-17 04:33N 54°18' W 130°21'0 0.0
2014-Nov-17 03:33N 54°18' W 130°21'0 0.0
2014-Nov-17 02:34N 54°18' W 130°21'0 0.0
2014-Nov-17 01:33N 54°18' W 130°21'0 0.0
2014-Nov-17 00:34N 54°18' W 130°21'0 0.0
2014-Nov-16 23:34N 54°18' W 130°21'0 0.0
2014-Nov-16 22:33N 54°18' W 130°21'0 0.0
2014-Nov-16 21:33N 54°18' W 130°21'0 0.0
2014-Nov-16 20:33N 54°18' W 130°21'0 0.0
2014-Nov-16 19:33N 54°18' W 130°21'0 0.0
2014-Nov-16 18:34N 54°18' W 130°21'0 0.4
2014-Nov-16 17:34N 54°18' W 130°22'0 0.2
2014-Nov-16 16:33N 54°18' W 130°22'6 6.2
2014-Nov-16 15:33N 54°12' W 130°22'2 1.4
2014-Nov-16 14:23N 54°13' W 130°21'4 5.3
2014-Nov-16 13:33N 54°18' W 130°21'0 0.0
2014-Nov-16 12:33N 54°18' W 130°21'0 0.0
2014-Nov-16 11:34N 54°18' W 130°21'0 0.0
2014-Nov-16 10:33N 54°18' W 130°21'0 0.0
2014-Nov-16 09:34N 54°18' W 130°21'0 0.0
2014-Nov-16 08:33N 54°18' W 130°21'0 0.0
2014-Nov-16 07:34N 54°18' W 130°21'0 0.0
2014-Nov-16 06:33N 54°18' W 130°21'0 0.0
2014-Nov-16 05:34N 54°18' W 130°21'0 0.0
2014-Nov-16 04:34N 54°18' W 130°21'0 0.0
2014-Nov-16 03:34N 54°18' W 130°21'0 0.0
2014-Nov-16 02:34N 54°18' W 130°21'0 0.0
2014-Nov-16 01:33N 54°18' W 130°21'0 0.0
2014-Nov-16 00:33N 54°18' W 130°21'0 0.0
2014-Nov-15 23:33N 54°18' W 130°21'0 0.0
2014-Nov-15 22:33N 54°18' W 130°21'0 0.0
2014-Nov-15 21:34N 54°18' W 130°21'0 0.0
2014-Nov-15 20:34N 54°18' W 130°21'0 0.0
2014-Nov-15 19:33N 54°18' W 130°21'0 0.0
2014-Nov-15 18:34N 54°18' W 130°21'0 0.0
2014-Nov-15 17:34N 54°18' W 130°21'0 0.1
2014-Nov-15 09:33N 54°17' W 130°22'1 0.8
2014-Nov-15 08:33N 54°18' W 130°22'6 5.8
2014-Nov-15 07:31N 54°12' W 130°22'1 0.8
2014-Nov-15 06:31N 54°13' W 130°22'5 5.1
2014-Nov-15 05:34N 54°18' W 130°21'0 0.0
2014-Nov-15 04:34N 54°18' W 130°21'0 0.0
2014-Nov-15 03:34N 54°18' W 130°21'0 0.0
2014-Nov-15 02:34N 54°18' W 130°21'0 0.0
2014-Nov-15 01:33N 54°18' W 130°21'0 0.0
2014-Nov-15 00:34N 54°18' W 130°21'0 0.0
2014-Nov-14 23:33N 54°18' W 130°21'0 0.0
2014-Nov-14 22:34N 54°18' W 130°21'0 0.0
2014-Nov-14 21:34N 54°18' W 130°21'0 0.0
2014-Nov-14 20:33N 54°18' W 130°21'0 0.0
2014-Nov-14 19:34N 54°18' W 130°21'0 0.0
2014-Nov-14 18:33N 54°18' W 130°21'0 0.0
2014-Nov-14 17:33N 54°18' W 130°21'0 0.0
2014-Nov-14 16:33N 54°18' W 130°21'0 0.0
2014-Nov-14 09:34N 54°18' W 130°21'0 0.0
2014-Nov-14 08:33N 54°18' W 130°21'0 0.4
2014-Nov-14 07:34N 54°17' W 130°22'0 0.4
2014-Nov-14 06:33N 54°17' W 130°22'1 0.9
2014-Nov-14 05:34N 54°18' W 130°21'0 0.0
2014-Nov-14 04:33N 54°18' W 130°21'0 0.0
2014-Nov-14 03:33N 54°18' W 130°21'0 0.0
2014-Nov-14 02:33N 54°18' W 130°21'0 0.0
2014-Nov-14 01:33N 54°18' W 130°21'0 0.0
2014-Nov-14 00:34N 54°18' W 130°21'0 0.0
2014-Nov-13 23:33N 54°18' W 130°21'0 0.0
2014-Nov-13 22:34N 54°18' W 130°21'0 0.0
2014-Nov-13 21:34N 54°18' W 130°21'0 0.0
2014-Nov-13 20:33N 54°18' W 130°21'0 0.0
2014-Nov-13 19:34N 54°18' W 130°21'0 0.0
2014-Nov-13 18:34N 54°18' W 130°21'0 0.0
2014-Nov-13 15:34N 54°18' W 130°21'0 0.0
2014-Nov-13 14:33N 54°18' W 130°21'0 0.0
2014-Nov-13 13:34N 54°18' W 130°21'0 0.0
2014-Nov-13 12:34N 54°18' W 130°21'0 0.0
2014-Nov-13 11:34N 54°18' W 130°21'0 0.0
2014-Nov-13 10:33N 54°18' W 130°21'0 0.0
2014-Nov-13 09:34N 54°18' W 130°21'0 0.0
2014-Nov-13 08:34N 54°18' W 130°21'0 0.0
2014-Nov-13 07:33N 54°18' W 130°21'0 0.0
2014-Nov-13 06:34N 54°18' W 130°21'0 0.0
2014-Nov-13 05:32N 54°18' W 130°21'0 0.0
2014-Nov-13 04:33N 54°18' W 130°21'0 0.0
2014-Nov-13 03:34N 54°18' W 130°21'0 0.0
2014-Nov-13 02:34N 54°18' W 130°21'0 0.0
2014-Nov-13 01:33N 54°18' W 130°21'0 0.0
2014-Nov-13 00:34N 54°18' W 130°21'0 0.0
2014-Nov-12 23:34N 54°18' W 130°21'0 0.0
2014-Nov-12 22:34N 54°18' W 130°21'0 0.0
2014-Nov-12 21:34N 54°18' W 130°21'0 0.0
2014-Nov-12 20:33N 54°18' W 130°21'0 0.0
2014-Nov-12 19:33N 54°18' W 130°21'0 0.0
2014-Nov-12 18:33N 54°18' W 130°21'0 0.0
2014-Nov-12 17:34N 54°18' W 130°21'0 0.0
2014-Nov-12 16:33N 54°18' W 130°21'0 0.0
2014-Nov-12 15:34N 54°18' W 130°21'0 0.0
2014-Nov-12 14:34N 54°18' W 130°21'0 0.0
2014-Nov-12 13:34N 54°18' W 130°21'0 0.0
2014-Nov-12 12:33N 54°18' W 130°21'0 0.0
2014-Nov-12 11:34N 54°18' W 130°21'0 0.0
2014-Nov-12 10:34N 54°18' W 130°21'0 0.0
2014-Nov-12 09:34N 54°18' W 130°21'0 0.0
2014-Nov-12 08:33N 54°18' W 130°21'0 0.0
2014-Nov-12 07:34N 54°18' W 130°21'0 0.0
2014-Nov-12 06:34N 54°18' W 130°21'0 0.0
2014-Nov-12 05:33N 54°18' W 130°21'0 0.0
2014-Nov-12 04:33N 54°18' W 130°21'  
Track history (hours):
 
Tides and Currents Weather Stations Pressure Air Temp Water Temp Dewpoint Dewpoint Depression Visibility Wind Speed Wind Dir Waves Ship Positions

Smit Clyde

Last reported at 2014-Nov-22 04:10 UTC. Time now 2014-Nov-22 14:25 UTC.
Position N 54°18' W 130°21'.

Length 28 m; draft 6 m.

Type: Towing. MMSI: 316011473.

Date/timePositionNaut miles runAvg speedWind from/ knotsBaromVisibWave heightAir tempDewpointWater temp
2014-Nov-22 04:10N 54°18' W 130°21'0 0.0
2014-Nov-22 03:34N 54°18' W 130°21'0 0.0
2014-Nov-22 02:34N 54°18' W 130°21'0 0.0
2014-Nov-22 01:34N 54°18' W 130°21'0 0.0
2014-Nov-22 00:34N 54°18' W 130°21'0 0.0
2014-Nov-21 23:33N 54°18' W 130°21'0 0.0
2014-Nov-21 22:33N 54°18' W 130°21'5 2.0
2014-Nov-21 20:13N 54°13' W 130°23'1 0.6
2014-Nov-21 19:23N 54°13' W 130°22'3 3.6
2014-Nov-21 18:33N 54°16' W 130°22'2 1.7
2014-Nov-21 17:33N 54°18' W 130°21'0 0.0
2014-Nov-21 09:34N 54°18' W 130°21'0 0.0
2014-Nov-21 08:33N 54°18' W 130°21'0 0.0
2014-Nov-21 07:33N 54°18' W 130°21'0 0.0
2014-Nov-21 06:34N 54°18' W 130°21'0 0.0
2014-Nov-21 05:33N 54°18' W 130°21'0 0.0
2014-Nov-21 04:34N 54°18' W 130°21'0 0.0
2014-Nov-21 03:34N 54°18' W 130°21'0 0.0
2014-Nov-21 02:33N 54°18' W 130°21'0 0.0
2014-Nov-21 01:34N 54°18' W 130°21'0 0.0
2014-Nov-21 00:33N 54°18' W 130°21'0 0.0
2014-Nov-20 23:33N 54°18' W 130°21'0 0.0
2014-Nov-20 22:34N 54°18' W 130°21'0 0.0
2014-Nov-20 20:04N 54°18' W 130°21'0 0.0
2014-Nov-20 19:33N 54°18' W 130°21'0 0.0
2014-Nov-20 18:33N 54°18' W 130°21'0 0.0
2014-Nov-20 17:34N 54°18' W 130°21'0 0.0
2014-Nov-20 16:34N 54°18' W 130°21'0 0.0
2014-Nov-20 15:34N 54°18' W 130°21'0 0.0
2014-Nov-20 14:34N 54°18' W 130°21'0 0.0
2014-Nov-20 13:34N 54°18' W 130°21'0 0.0
2014-Nov-20 12:34N 54°18' W 130°21'0 0.0
2014-Nov-20 11:34N 54°18' W 130°21'0 0.0
2014-Nov-20 10:33N 54°18' W 130°21'0 0.0
2014-Nov-20 09:33N 54°18' W 130°21'0 0.0
2014-Nov-20 08:34N 54°18' W 130°21'0 0.0
2014-Nov-20 07:34N 54°18' W 130°21'0 0.0
2014-Nov-20 06:33N 54°18' W 130°21'0 0.0
2014-Nov-20 05:33N 54°18' W 130°21'0 0.0
2014-Nov-20 04:34N 54°18' W 130°21'0 0.0
2014-Nov-20 03:34N 54°18' W 130°21'0 0.0
2014-Nov-20 02:33N 54°18' W 130°21'0 0.0
2014-Nov-20 01:34N 54°18' W 130°21'0 0.0
2014-Nov-20 00:34N 54°18' W 130°21'0 0.0
2014-Nov-19 23:33N 54°18' W 130°21'0 0.0
2014-Nov-19 22:34N 54°18' W 130°21'0 0.0
2014-Nov-19 21:33N 54°18' W 130°21'0 0.0
2014-Nov-19 20:33N 54°18' W 130°21'0 0.0
2014-Nov-19 19:33N 54°18' W 130°21'0 0.0
2014-Nov-19 18:33N 54°18' W 130°21'0 0.0
2014-Nov-19 17:34N 54°18' W 130°21'0 0.0
2014-Nov-19 16:34N 54°18' W 130°21'0 0.0
2014-Nov-19 02:34N 54°18' W 130°21'0 0.0
2014-Nov-19 01:34N 54°18' W 130°21'0 0.0
2014-Nov-19 00:33N 54°18' W 130°21'0 0.0
2014-Nov-18 23:33N 54°18' W 130°21'0 0.0
2014-Nov-18 22:34N 54°18' W 130°21'0 0.0
2014-Nov-18 21:33N 54°18' W 130°21'0 0.0
2014-Nov-18 20:33N 54°18' W 130°21'0 0.0
2014-Nov-18 19:34N 54°18' W 130°21'0 0.0
2014-Nov-18 18:33N 54°18' W 130°21'0 0.0
2014-Nov-18 17:34N 54°18' W 130°21'0 0.0
2014-Nov-18 16:34N 54°18' W 130°21'0 0.0
2014-Nov-18 15:34N 54°18' W 130°21'0 0.0
2014-Nov-18 09:33N 54°18' W 130°21'0 0.0
2014-Nov-18 08:33N 54°18' W 130°21'0 0.0
2014-Nov-18 07:33N 54°18' W 130°21'0 0.0
2014-Nov-18 06:33N 54°18' W 130°21'0 0.0
2014-Nov-18 05:33N 54°18' W 130°21'0 0.0
2014-Nov-18 04:33N 54°18' W 130°21'0 0.0
2014-Nov-18 03:34N 54°18' W 130°21'0 0.0
2014-Nov-18 02:34N 54°18' W 130°21'0 0.0
2014-Nov-18 01:33N 54°18' W 130°21'0 0.0
2014-Nov-17 21:34N 54°18' W 130°21'0 0.0
2014-Nov-17 20:34N 54°18' W 130°21'0 0.0
2014-Nov-17 19:34N 54°18' W 130°21'0 0.0
2014-Nov-17 18:33N 54°18' W 130°21'0 0.0
2014-Nov-17 17:34N 54°18' W 130°21'0 0.0
2014-Nov-17 16:33N 54°18' W 130°21'0 0.0
2014-Nov-17 15:34N 54°18' W 130°21'0 0.0
2014-Nov-17 14:33N 54°18' W 130°21'0 0.0
2014-Nov-17 13:34N 54°18' W 130°21'0 0.0
2014-Nov-17 12:33N 54°18' W 130°21'0 0.0
2014-Nov-17 11:33N 54°18' W 130°21'0 0.0
2014-Nov-17 10:34N 54°18' W 130°21'0 0.0
2014-Nov-17 09:33N 54°18' W 130°21'0 0.0
2014-Nov-17 08:33N 54°18' W 130°21'0 0.0
2014-Nov-17 07:34N 54°18' W 130°21'0 0.0
2014-Nov-17 06:34N 54°18' W 130°21'0 0.0
2014-Nov-17 05:33N 54°18' W 130°21'0 0.0
2014-Nov-17 04:33N 54°18' W 130°21'0 0.0
2014-Nov-17 03:33N 54°18' W 130°21'0 0.0
2014-Nov-17 02:34N 54°18' W 130°21'0 0.0
2014-Nov-17 01:33N 54°18' W 130°21'0 0.0
2014-Nov-17 00:34N 54°18' W 130°21'0 0.0
2014-Nov-16 23:34N 54°18' W 130°21'0 0.0
2014-Nov-16 22:33N 54°18' W 130°21'0 0.0
2014-Nov-16 21:33N 54°18' W 130°21'0 0.0
2014-Nov-16 20:33N 54°18' W 130°21'0 0.0
2014-Nov-16 19:33N 54°18' W 130°21'0 0.0
2014-Nov-16 18:34N 54°18' W 130°21'0 0.4
2014-Nov-16 17:34N 54°18' W 130°22'0 0.2
2014-Nov-16 16:33N 54°18' W 130°22'6 6.2
2014-Nov-16 15:33N 54°12' W 130°22'2 1.4
2014-Nov-16 14:23N 54°13' W 130°21'4 5.3
2014-Nov-16 13:33N 54°18' W 130°21'0 0.0
2014-Nov-16 12:33N 54°18' W 130°21'0 0.0
2014-Nov-16 11:34N 54°18' W 130°21'0 0.0
2014-Nov-16 10:33N 54°18' W 130°21'0 0.0
2014-Nov-16 09:34N 54°18' W 130°21'0 0.0
2014-Nov-16 08:33N 54°18' W 130°21'0 0.0
2014-Nov-16 07:34N 54°18' W 130°21'0 0.0
2014-Nov-16 06:33N 54°18' W 130°21'0 0.0
2014-Nov-16 05:34N 54°18' W 130°21'0 0.0
2014-Nov-16 04:34N 54°18' W 130°21'0 0.0
2014-Nov-16 03:34N 54°18' W 130°21'0 0.0
2014-Nov-16 02:34N 54°18' W 130°21'0 0.0
2014-Nov-16 01:33N 54°18' W 130°21'0 0.0
2014-Nov-16 00:33N 54°18' W 130°21'0 0.0
2014-Nov-15 23:33N 54°18' W 130°21'0 0.0
2014-Nov-15 22:33N 54°18' W 130°21'0 0.0
2014-Nov-15 21:34N 54°18' W 130°21'0 0.0
2014-Nov-15 20:34N 54°18' W 130°21'0 0.0
2014-Nov-15 19:33N 54°18' W 130°21'0 0.0
2014-Nov-15 18:34N 54°18' W 130°21'0 0.0
2014-Nov-15 17:34N 54°18' W 130°21'0 0.1
2014-Nov-15 09:33N 54°17' W 130°22'1 0.8
2014-Nov-15 08:33N 54°18' W 130°22'6 5.8
2014-Nov-15 07:31N 54°12' W 130°22'1 0.8
2014-Nov-15 06:31N 54°13' W 130°22'5 5.1
2014-Nov-15 05:34N 54°18' W 130°21'0 0.0
2014-Nov-15 04:34N 54°18' W 130°21'0 0.0
2014-Nov-15 03:34N 54°18' W 130°21'0 0.0
2014-Nov-15 02:34N 54°18' W 130°21'0 0.0
2014-Nov-15 01:33N 54°18' W 130°21'0 0.0
2014-Nov-15 00:34N 54°18' W 130°21'0 0.0
2014-Nov-14 23:33N 54°18' W 130°21'0 0.0
2014-Nov-14 22:34N 54°18' W 130°21'0 0.0
2014-Nov-14 21:34N 54°18' W 130°21'0 0.0
2014-Nov-14 20:33N 54°18' W 130°21'0 0.0
2014-Nov-14 19:34N 54°18' W 130°21'0 0.0
2014-Nov-14 18:33N 54°18' W 130°21'0 0.0
2014-Nov-14 17:33N 54°18' W 130°21'0 0.0
2014-Nov-14 16:33N 54°18' W 130°21'0 0.0
2014-Nov-14 09:34N 54°18' W 130°21'0 0.0
2014-Nov-14 08:33N 54°18' W 130°21'0 0.4
2014-Nov-14 07:34N 54°17' W 130°22'0 0.4
2014-Nov-14 06:33N 54°17' W 130°22'1 0.9
2014-Nov-14 05:34N 54°18' W 130°21'0 0.0
2014-Nov-14 04:33N 54°18' W 130°21'0 0.0
2014-Nov-14 03:33N 54°18' W 130°21'0 0.0
2014-Nov-14 02:33N 54°18' W 130°21'0 0.0
2014-Nov-14 01:33N 54°18' W 130°21'0 0.0
2014-Nov-14 00:34N 54°18' W 130°21'0 0.0
2014-Nov-13 23:33N 54°18' W 130°21'0 0.0
2014-Nov-13 22:34N 54°18' W 130°21'0 0.0
2014-Nov-13 21:34N 54°18' W 130°21'0 0.0
2014-Nov-13 20:33N 54°18' W 130°21'0 0.0
2014-Nov-13 19:34N 54°18' W 130°21'0 0.0
2014-Nov-13 18:34N 54°18' W 130°21'0 0.0
2014-Nov-13 15:34N 54°18' W 130°21'0 0.0
2014-Nov-13 14:33N 54°18' W 130°21'0 0.0
2014-Nov-13 13:34N 54°18' W 130°21'0 0.0
2014-Nov-13 12:34N 54°18' W 130°21'0 0.0
2014-Nov-13 11:34N 54°18' W 130°21'0 0.0
2014-Nov-13 10:33N 54°18' W 130°21'0 0.0
2014-Nov-13 09:34N 54°18' W 130°21'0 0.0
2014-Nov-13 08:34N 54°18' W 130°21'0 0.0
2014-Nov-13 07:33N 54°18' W 130°21'0 0.0
2014-Nov-13 06:34N 54°18' W 130°21'0 0.0
2014-Nov-13 05:32N 54°18' W 130°21'0 0.0
2014-Nov-13 04:33N 54°18' W 130°21'0 0.0
2014-Nov-13 03:34N 54°18' W 130°21'0 0.0
2014-Nov-13 02:34N 54°18' W 130°21'0 0.0
2014-Nov-13 01:33N 54°18' W 130°21'0 0.0
2014-Nov-13 00:34N 54°18' W 130°21'0 0.0
2014-Nov-12 23:34N 54°18' W 130°21'0 0.0
2014-Nov-12 22:34N 54°18' W 130°21'0 0.0
2014-Nov-12 21:34N 54°18' W 130°21'0 0.0
2014-Nov-12 20:33N 54°18' W 130°21'0 0.0
2014-Nov-12 19:33N 54°18' W 130°21'0 0.0
2014-Nov-12 18:33N 54°18' W 130°21'0 0.0
2014-Nov-12 17:34N 54°18' W 130°21'0 0.0
2014-Nov-12 16:33N 54°18' W 130°21'0 0.0
2014-Nov-12 15:34N 54°18' W 130°21'0 0.0
2014-Nov-12 14:34N 54°18' W 130°21'0 0.0
2014-Nov-12 13:34N 54°18' W 130°21'0 0.0
2014-Nov-12 12:33N 54°18' W 130°21'0 0.0
2014-Nov-12 11:34N 54°18' W 130°21'0 0.0
2014-Nov-12 10:34N 54°18' W 130°21'0 0.0
2014-Nov-12 09:34N 54°18' W 130°21'0 0.0
2014-Nov-12 08:33N 54°18' W 130°21'0 0.0
2014-Nov-12 07:34N 54°18' W 130°21'0 0.0
2014-Nov-12 06:34N 54°18' W 130°21'0 0.0
2014-Nov-12 05:33N 54°18' W 130°21'0 0.0
2014-Nov-12 04:33N 54°18' W 130°21'  

Dump ship's entire track history